Galien, Michigan
Current Conditions -  °F | °C
As of 1:54 AM on Wednesday 26 Nov 2014 (Local Time) from KSBN Reporting Station
Overcast Overcast  
Wind Chill: 25°   Ceiling: 1600
Heat Index: 25°   Visibility: 10mi
Dew Point: 19°   Wind: 0mph
Humidity: 78%   Direction: NA
Pressure: 30.18"   Gusts: NA
Location:  41.8°N, 86.5°W
Report Text: KSBN 260654Z 00000KT 10SM OVC016 M04/M07 A3018 RMK AO2 SLP231 T10391072
Loading
Personal Weather Stations






























Interactive Weather Map New forecast layout! Learn more

10-Day Weather Forecast

Advertisements
Track Severe Weather on mobile